Mitchellville, MD (20721)

8:46 PM EST on November 27, 2014 (GMT -0500)
Northridge | Change Station
CLOSE
Current Station
Personal Weather Station
Location: Bowie, MD
Elevation: 157 ft
Nearby Weather Stations

Elev 157 ft 38.99 °N, 76.80 °W | Updated 12 minutes ago

Clear
Clear
33.6 °F
Feels Like 34 °F
N
0.0
Wind Variable Wind from ESE

Today
High -- | Low -- °F
--% Chance of Precip.
Yesterday
High -- | Low -- °F
Precip. -- in
7:02 AM 4:46 PM
Waxing Crescent, 35% visible
Pressure 30.15 in
Visibility 10.0 miles
Clouds Scattered Clouds 6000 ft
Windchill 34 °F
Dew Point 30 °F
Humidity 87%
Rainfall 0.00 in
Snow Depth Not available.
UV 0 out of 12
Pollen .10 out of 12
Air Quality Not available.
Flu Activity Not available.
METAR KCGS 280110Z AUTO 27005KT 10SM SCT060 03/M01 A3015 RMK AO1

More Conditions Fewer Conditions

Pressure 30.15 in
Visibility 10.0 miles
Clouds Scattered Clouds 6000 ft
Windchill 34 °F
Dew Point 30 °F
Humidity 87%
Rainfall 0.00 in
Snow Depth Not available.
UV 0 out of 12
Pollen .10 out of 12
Air Quality Not available.
Flu Activity Not available.
METAR KCGS 280110Z AUTO 27005KT 10SM SCT060 03/M01 A3015 RMK AO1

More Conditions Fewer Conditions

10-Day Weather Forecast

Almanac

Astronomy

Nov. 27, 2014 Rise Set
Actual Time
Civil Twilight
Nautical Twilight
Astronomical Twilight
Moon
Length of Visible Light
Length of Day
Tomorrow will be .
, % of the Moon is Illuminated

Today's Extremes

State Highs State Lows

Community

WunderPhotos

Upload Photos

1,774,151 photos uploaded!

WunderBlogs® & News

Nearby

Air Quality

  Air Quality AQ Index Pollutant
Not available.

Snow Depth

Station Depth Elevation

Earthquake Activity

City Distance Mag. Time & Date
Minimum magnitude displayed is 2.5.

Coastal Water Temperatures

Place Temperature

Nearby Weather Stations